sensor_id;sensor_type;location;lat;lon;timestamp;temperature;humidity
43995;DHT22;51687;52.160;5.298;2023-05-07T00:01:28;19.40;68.10
43995;DHT22;51687;52.160;5.298;2023-05-07T00:03:55;19.40;68.10
43995;DHT22;51687;52.160;5.298;2023-05-07T00:06:22;19.40;68.10
43995;DHT22;51687;52.160;5.298;2023-05-07T00:08:49;19.30;68.10
43995;DHT22;51687;52.160;5.298;2023-05-07T00:11:15;19.40;68.10
43995;DHT22;51687;52.160;5.298;2023-05-07T00:13:42;19.30;68.00
43995;DHT22;51687;52.160;5.298;2023-05-07T00:16:09;19.30;68.10
43995;DHT22;51687;52.160;5.298;2023-05-07T00:18:36;19.30;68.10
43995;DHT22;51687;52.160;5.298;2023-05-07T00:21:03;19.30;68.10
43995;DHT22;51687;52.160;5.298;2023-05-07T00:23:30;19.30;68.10
43995;DHT22;51687;52.160;5.298;2023-05-07T00:25:56;19.30;68.00
43995;DHT22;51687;52.160;5.298;2023-05-07T00:28:23;19.30;68.00
43995;DHT22;51687;52.160;5.298;2023-05-07T00:30:50;19.30;68.00
43995;DHT22;51687;52.160;5.298;2023-05-07T00:33:17;19.30;68.00
43995;DHT22;51687;52.160;5.298;2023-05-07T00:35:43;19.20;67.80
43995;DHT22;51687;52.160;5.298;2023-05-07T00:38:10;19.20;67.80
43995;DHT22;51687;52.160;5.298;2023-05-07T00:40:37;19.30;68.40
43995;DHT22;51687;52.160;5.298;2023-05-07T00:43:04;19.20;67.70
43995;DHT22;51687;52.160;5.298;2023-05-07T00:45:30;19.20;67.80
43995;DHT22;51687;52.160;5.298;2023-05-07T00:48:02;19.20;67.90
43995;DHT22;51687;52.160;5.298;2023-05-07T00:50:29;19.20;67.90
43995;DHT22;51687;52.160;5.298;2023-05-07T00:52:56;19.10;67.90
43995;DHT22;51687;52.160;5.298;2023-05-07T00:55:23;19.10;68.00
43995;DHT22;51687;52.160;5.298;2023-05-07T00:57:51;19.20;68.10
43995;DHT22;51687;52.160;5.298;2023-05-07T01:00:18;19.10;67.90
43995;DHT22;51687;52.160;5.298;2023-05-07T01:02:45;19.10;67.80
43995;DHT22;51687;52.160;5.298;2023-05-07T01:05:17;19.10;68.00
43995;DHT22;51687;52.160;5.298;2023-05-07T01:07:45;19.10;67.70
43995;DHT22;51687;52.160;5.298;2023-05-07T01:10:13;19.10;67.80
43995;DHT22;51687;52.160;5.298;2023-05-07T01:12:41;19.10;68.00
43995;DHT22;51687;52.160;5.298;2023-05-07T01:15:09;19.10;68.00
43995;DHT22;51687;52.160;5.298;2023-05-07T01:17:38;19.10;68.00
43995;DHT22;51687;52.160;5.298;2023-05-07T01:20:06;19.10;68.00
43995;DHT22;51687;52.160;5.298;2023-05-07T01:22:37;19.10;68.00
43995;DHT22;51687;52.160;5.298;2023-05-07T01:25:05;19.10;67.80
43995;DHT22;51687;52.160;5.298;2023-05-07T01:27:32;19.00;67.80
43995;DHT22;51687;52.160;5.298;2023-05-07T01:30:00;19.10;68.00
43995;DHT22;51687;52.160;5.298;2023-05-07T01:35:04;19.00;68.10
43995;DHT22;51687;52.160;5.298;2023-05-07T01:37:33;19.00;68.10
43995;DHT22;51687;52.160;5.298;2023-05-07T01:40:01;19.00;68.20
43995;DHT22;51687;52.160;5.298;2023-05-07T01:42:29;19.00;68.20
43995;DHT22;51687;52.160;5.298;2023-05-07T01:44:56;19.00;68.30
43995;DHT22;51687;52.160;5.298;2023-05-07T01:47:23;19.00;68.50
43995;DHT22;51687;52.160;5.298;2023-05-07T01:49:50;19.00;68.50
43995;DHT22;51687;52.160;5.298;2023-05-07T02:02:06;19.00;68.60
43995;DHT22;51687;52.160;5.298;2023-05-07T02:14:21;18.90;68.40
43995;DHT22;51687;52.160;5.298;2023-05-07T02:16:48;18.90;69.20
43995;DHT22;51687;52.160;5.298;2023-05-07T02:19:15;18.90;69.10
43995;DHT22;51687;52.160;5.298;2023-05-07T02:21:42;18.90;69.10
43995;DHT22;51687;52.160;5.298;2023-05-07T02:24:08;18.90;69.10
43995;DHT22;51687;52.160;5.298;2023-05-07T02:26:35;18.90;69.20
43995;DHT22;51687;52.160;5.298;2023-05-07T02:29:02;18.90;69.30
43995;DHT22;51687;52.160;5.298;2023-05-07T02:31:29;18.90;69.30
43995;DHT22;51687;52.160;5.298;2023-05-07T02:33:55;18.90;69.30
43995;DHT22;51687;52.160;5.298;2023-05-07T02:36:22;18.90;69.30
43995;DHT22;51687;52.160;5.298;2023-05-07T02:38:49;18.90;69.30
43995;DHT22;51687;52.160;5.298;2023-05-07T02:41:16;18.80;69.20
43995;DHT22;51687;52.160;5.298;2023-05-07T02:43:43;18.90;69.30
43995;DHT22;51687;52.160;5.298;2023-05-07T02:46:09;18.90;69.30
43995;DHT22;51687;52.160;5.298;2023-05-07T02:48:36;18.80;69.40
43995;DHT22;51687;52.160;5.298;2023-05-07T02:51:03;18.80;69.50
43995;DHT22;51687;52.160;5.298;2023-05-07T02:53:31;18.80;69.50
43995;DHT22;51687;52.160;5.298;2023-05-07T02:56:00;18.80;69.50
43995;DHT22;51687;52.160;5.298;2023-05-07T02:58:27;18.80;69.50
43995;DHT22;51687;52.160;5.298;2023-05-07T03:00:53;18.80;69.40
43995;DHT22;51687;52.160;5.298;2023-05-07T03:03:23;18.80;69.50
43995;DHT22;51687;52.160;5.298;2023-05-07T03:05:50;18.80;69.60
43995;DHT22;51687;52.160;5.298;2023-05-07T03:08:17;18.80;69.80
43995;DHT22;51687;52.160;5.298;2023-05-07T03:10:43;18.80;69.80
43995;DHT22;51687;52.160;5.298;2023-05-07T03:13:10;18.80;69.80
43995;DHT22;51687;52.160;5.298;2023-05-07T03:15:37;18.80;69.80
43995;DHT22;51687;52.160;5.298;2023-05-07T03:18:04;18.70;69.70
43995;DHT22;51687;52.160;5.298;2023-05-07T03:20:31;18.70;69.70
43995;DHT22;51687;52.160;5.298;2023-05-07T03:22:58;18.80;69.70
43995;DHT22;51687;52.160;5.298;2023-05-07T03:25:24;18.70;69.60
43995;DHT22;51687;52.160;5.298;2023-05-07T03:27:51;18.80;69.80
43995;DHT22;51687;52.160;5.298;2023-05-07T03:30:18;18.70;69.80
43995;DHT22;51687;52.160;5.298;2023-05-07T03:32:45;18.70;69.90
43995;DHT22;51687;52.160;5.298;2023-05-07T03:35:12;18.70;69.80
43995;DHT22;51687;52.160;5.298;2023-05-07T03:37:40;18.70;69.90
43995;DHT22;51687;52.160;5.298;2023-05-07T03:40:07;18.70;69.80
43995;DHT22;51687;52.160;5.298;2023-05-07T03:42:36;18.80;69.90
43995;DHT22;51687;52.160;5.298;2023-05-07T03:45:03;18.70;69.90
43995;DHT22;51687;52.160;5.298;2023-05-07T03:47:30;18.70;69.90
43995;DHT22;51687;52.160;5.298;2023-05-07T03:49:56;18.70;69.90
43995;DHT22;51687;52.160;5.298;2023-05-07T03:52:23;18.70;69.90
43995;DHT22;51687;52.160;5.298;2023-05-07T03:54:53;18.70;69.90
43995;DHT22;51687;52.160;5.298;2023-05-07T03:57:20;18.70;69.90
43995;DHT22;51687;52.160;5.298;2023-05-07T03:59:47;18.70;69.90
43995;DHT22;51687;52.160;5.298;2023-05-07T04:02:14;18.60;69.80
43995;DHT22;51687;52.160;5.298;2023-05-07T04:04:42;18.60;69.90
43995;DHT22;51687;52.160;5.298;2023-05-07T04:07:09;18.60;69.90
43995;DHT22;51687;52.160;5.298;2023-05-07T04:09:36;18.70;69.90
43995;DHT22;51687;52.160;5.298;2023-05-07T04:12:03;18.60;69.80
43995;DHT22;51687;52.160;5.298;2023-05-07T04:14:30;18.70;69.90
43995;DHT22;51687;52.160;5.298;2023-05-07T04:16:59;18.60;70.00
43995;DHT22;51687;52.160;5.298;2023-05-07T04:19:26;18.60;70.00
43995;DHT22;51687;52.160;5.298;2023-05-07T04:21:52;18.60;70.00
43995;DHT22;51687;52.160;5.298;2023-05-07T04:24:19;18.60;70.10
43995;DHT22;51687;52.160;5.298;2023-05-07T04:26:46;18.60;70.10
43995;DHT22;51687;52.160;5.298;2023-05-07T04:29:13;18.60;70.20
43995;DHT22;51687;52.160;5.298;2023-05-07T04:31:40;18.60;70.20
43995;DHT22;51687;52.160;5.298;2023-05-07T04:34:06;18.70;70.40
43995;DHT22;51687;52.160;5.298;2023-05-07T04:36:33;18.60;70.30
43995;DHT22;51687;52.160;5.298;2023-05-07T04:39:01;18.60;70.30
43995;DHT22;51687;52.160;5.298;2023-05-07T04:41:28;18.60;70.40
43995;DHT22;51687;52.160;5.298;2023-05-07T04:43:55;18.60;70.40
43995;DHT22;51687;52.160;5.298;2023-05-07T04:46:23;18.70;70.50
43995;DHT22;51687;52.160;5.298;2023-05-07T04:48:51;18.60;70.40
43995;DHT22;51687;52.160;5.298;2023-05-07T04:51:17;18.60;70.40
43995;DHT22;51687;52.160;5.298;2023-05-07T04:53:44;18.60;70.50
43995;DHT22;51687;52.160;5.298;2023-05-07T04:56:11;18.60;70.60
43995;DHT22;51687;52.160;5.298;2023-05-07T04:58:38;18.60;70.60
43995;DHT22;51687;52.160;5.298;2023-05-07T05:01:05;18.60;70.60
43995;DHT22;51687;52.160;5.298;2023-05-07T05:03:32;18.60;70.60
43995;DHT22;51687;52.160;5.298;2023-05-07T05:05:59;18.60;70.50
43995;DHT22;51687;52.160;5.298;2023-05-07T05:08:26;18.60;70.50
43995;DHT22;51687;52.160;5.298;2023-05-07T05:10:53;18.60;70.50
43995;DHT22;51687;52.160;5.298;2023-05-07T05:13:19;18.60;70.60
43995;DHT22;51687;52.160;5.298;2023-05-07T05:15:47;18.60;70.60
43995;DHT22;51687;52.160;5.298;2023-05-07T05:18:14;18.60;70.50
43995;DHT22;51687;52.160;5.298;2023-05-07T05:20:42;18.60;70.50
43995;DHT22;51687;52.160;5.298;2023-05-07T05:23:09;18.60;70.40
43995;DHT22;51687;52.160;5.298;2023-05-07T05:25:36;18.50;70.30
43995;DHT22;51687;52.160;5.298;2023-05-07T05:28:03;18.50;70.20
43995;DHT22;51687;52.160;5.298;2023-05-07T05:30:30;18.50;70.20
43995;DHT22;51687;52.160;5.298;2023-05-07T05:32:57;18.60;70.20
43995;DHT22;51687;52.160;5.298;2023-05-07T05:35:24;18.50;70.10
43995;DHT22;51687;52.160;5.298;2023-05-07T05:37:51;18.50;70.10
43995;DHT22;51687;52.160;5.298;2023-05-07T05:40:17;18.50;70.00
43995;DHT22;51687;52.160;5.298;2023-05-07T05:42:45;18.50;70.10
43995;DHT22;51687;52.160;5.298;2023-05-07T05:45:13;18.50;70.10
43995;DHT22;51687;52.160;5.298;2023-05-07T05:47:39;18.50;70.00
43995;DHT22;51687;52.160;5.298;2023-05-07T05:50:07;18.50;70.00
43995;DHT22;51687;52.160;5.298;2023-05-07T05:52:34;18.50;70.20
43995;DHT22;51687;52.160;5.298;2023-05-07T05:55:01;18.50;70.40
43995;DHT22;51687;52.160;5.298;2023-05-07T05:57:27;18.50;70.60
43995;DHT22;51687;52.160;5.298;2023-05-07T05:59:54;18.50;70.60
43995;DHT22;51687;52.160;5.298;2023-05-07T06:02:21;18.50;70.70
43995;DHT22;51687;52.160;5.298;2023-05-07T06:04:48;18.50;70.70
43995;DHT22;51687;52.160;5.298;2023-05-07T06:07:15;18.50;70.70
43995;DHT22;51687;52.160;5.298;2023-05-07T06:09:42;18.50;70.80
43995;DHT22;51687;52.160;5.298;2023-05-07T06:12:09;18.50;71.00
43995;DHT22;51687;52.160;5.298;2023-05-07T06:14:35;18.50;70.90
43995;DHT22;51687;52.160;5.298;2023-05-07T06:17:02;18.50;71.00
43995;DHT22;51687;52.160;5.298;2023-05-07T06:19:29;18.50;71.00
43995;DHT22;51687;52.160;5.298;2023-05-07T06:21:56;18.50;71.10
43995;DHT22;51687;52.160;5.298;2023-05-07T06:24:23;18.50;71.20
43995;DHT22;51687;52.160;5.298;2023-05-07T06:26:50;18.50;71.20
43995;DHT22;51687;52.160;5.298;2023-05-07T06:29:17;18.60;71.30
43995;DHT22;51687;52.160;5.298;2023-05-07T06:31:43;18.60;71.30
43995;DHT22;51687;52.160;5.298;2023-05-07T06:34:10;18.60;71.40
43995;DHT22;51687;52.160;5.298;2023-05-07T06:36:40;18.60;71.60
43995;DHT22;51687;52.160;5.298;2023-05-07T06:39:07;18.50;71.60
43995;DHT22;51687;52.160;5.298;2023-05-07T06:41:34;18.50;71.70
43995;DHT22;51687;52.160;5.298;2023-05-07T06:44:02;18.50;72.00
43995;DHT22;51687;52.160;5.298;2023-05-07T06:46:29;18.60;72.30
43995;DHT22;51687;52.160;5.298;2023-05-07T06:48:56;18.60;72.40
43995;DHT22;51687;52.160;5.298;2023-05-07T06:51:23;18.60;72.40
43995;DHT22;51687;52.160;5.298;2023-05-07T06:53:50;18.60;72.90
43995;DHT22;51687;52.160;5.298;2023-05-07T06:56:17;18.60;72.30
43995;DHT22;51687;52.160;5.298;2023-05-07T06:58:43;18.60;72.60
43995;DHT22;51687;52.160;5.298;2023-05-07T07:01:10;18.60;72.50
43995;DHT22;51687;52.160;5.298;2023-05-07T07:03:37;18.60;72.50
43995;DHT22;51687;52.160;5.298;2023-05-07T07:06:04;18.60;72.60
43995;DHT22;51687;52.160;5.298;2023-05-07T07:08:30;18.70;72.90
43995;DHT22;51687;52.160;5.298;2023-05-07T07:10:57;18.60;72.90
43995;DHT22;51687;52.160;5.298;2023-05-07T07:13:24;18.60;73.40
43995;DHT22;51687;52.160;5.298;2023-05-07T07:15:52;18.70;72.90
43995;DHT22;51687;52.160;5.298;2023-05-07T07:18:19;18.70;73.00
43995;DHT22;51687;52.160;5.298;2023-05-07T07:50:17;18.70;73.00
43995;DHT22;51687;52.160;5.298;2023-05-07T07:53:01;19.00;73.40
43995;DHT22;51687;52.160;5.298;2023-05-07T07:55:28;19.00;73.10
43995;DHT22;51687;52.160;5.298;2023-05-07T07:57:55;19.00;72.70
43995;DHT22;51687;52.160;5.298;2023-05-07T08:00:22;19.00;72.40
43995;DHT22;51687;52.160;5.298;2023-05-07T08:02:49;19.00;72.40
43995;DHT22;51687;52.160;5.298;2023-05-07T08:05:16;19.10;72.60
43995;DHT22;51687;52.160;5.298;2023-05-07T08:07:42;19.10;72.40
43995;DHT22;51687;52.160;5.298;2023-05-07T08:10:09;19.10;72.20
43995;DHT22;51687;52.160;5.298;2023-05-07T08:12:36;19.10;72.10
43995;DHT22;51687;52.160;5.298;2023-05-07T08:15:03;19.10;72.00
43995;DHT22;51687;52.160;5.298;2023-05-07T08:17:31;19.10;71.90
43995;DHT22;51687;52.160;5.298;2023-05-07T08:19:58;19.10;71.90
43995;DHT22;51687;52.160;5.298;2023-05-07T08:22:24;19.20;72.30
43995;DHT22;51687;52.160;5.298;2023-05-07T08:24:51;19.20;72.30
43995;DHT22;51687;52.160;5.298;2023-05-07T08:27:19;19.20;72.30
43995;DHT22;51687;52.160;5.298;2023-05-07T08:29:46;19.20;72.70
43995;DHT22;51687;52.160;5.298;2023-05-07T08:32:14;19.20;72.60
43995;DHT22;51687;52.160;5.298;2023-05-07T08:34:42;19.30;73.10
43995;DHT22;51687;52.160;5.298;2023-05-07T08:37:09;19.30;73.50
43995;DHT22;51687;52.160;5.298;2023-05-07T08:39:35;19.30;73.30
43995;DHT22;51687;52.160;5.298;2023-05-07T08:42:04;19.30;73.40
43995;DHT22;51687;52.160;5.298;2023-05-07T08:44:34;19.30;73.40
43995;DHT22;51687;52.160;5.298;2023-05-07T08:47:02;19.30;73.50
43995;DHT22;51687;52.160;5.298;2023-05-07T08:49:29;19.30;73.20
43995;DHT22;51687;52.160;5.298;2023-05-07T08:51:56;19.40;73.10
43995;DHT22;51687;52.160;5.298;2023-05-07T08:54:23;19.40;72.70
43995;DHT22;51687;52.160;5.298;2023-05-07T08:56:50;19.40;72.70
43995;DHT22;51687;52.160;5.298;2023-05-07T08:59:17;19.40;72.60
43995;DHT22;51687;52.160;5.298;2023-05-07T09:01:44;19.40;72.70
43995;DHT22;51687;52.160;5.298;2023-05-07T09:04:11;19.40;72.40
43995;DHT22;51687;52.160;5.298;2023-05-07T09:06:40;19.40;72.20
43995;DHT22;51687;52.160;5.298;2023-05-07T09:09:08;19.40;72.10
43995;DHT22;51687;52.160;5.298;2023-05-07T09:11:36;19.40;72.00
43995;DHT22;51687;52.160;5.298;2023-05-07T09:14:03;19.40;72.40
43995;DHT22;51687;52.160;5.298;2023-05-07T09:16:32;19.40;72.30
43995;DHT22;51687;52.160;5.298;2023-05-07T09:19:00;19.40;72.50
43995;DHT22;51687;52.160;5.298;2023-05-07T09:21:27;19.50;72.50
43995;DHT22;51687;52.160;5.298;2023-05-07T09:23:55;19.50;72.20
43995;DHT22;51687;52.160;5.298;2023-05-07T09:26:22;19.50;72.30
43995;DHT22;51687;52.160;5.298;2023-05-07T09:28:49;19.50;72.10
43995;DHT22;51687;52.160;5.298;2023-05-07T09:31:17;19.50;71.60
43995;DHT22;51687;52.160;5.298;2023-05-07T09:33:47;19.50;70.90
43995;DHT22;51687;52.160;5.298;2023-05-07T09:36:13;19.50;70.80
43995;DHT22;51687;52.160;5.298;2023-05-07T09:38:42;19.60;71.40
43995;DHT22;51687;52.160;5.298;2023-05-07T09:41:11;19.60;71.60
43995;DHT22;51687;52.160;5.298;2023-05-07T09:43:39;19.60;71.50
43995;DHT22;51687;52.160;5.298;2023-05-07T09:46:13;19.60;71.50
43995;DHT22;51687;52.160;5.298;2023-05-07T09:48:43;19.60;71.60
43995;DHT22;51687;52.160;5.298;2023-05-07T09:51:37;19.60;72.10
43995;DHT22;51687;52.160;5.298;2023-05-07T09:54:06;19.60;71.70
43995;DHT22;51687;52.160;5.298;2023-05-07T09:56:33;19.60;71.80
43995;DHT22;51687;52.160;5.298;2023-05-07T09:59:01;19.60;71.80
43995;DHT22;51687;52.160;5.298;2023-05-07T10:01:31;19.70;71.90
43995;DHT22;51687;52.160;5.298;2023-05-07T10:03:58;19.70;71.90
43995;DHT22;51687;52.160;5.298;2023-05-07T10:06:25;19.70;71.80
43995;DHT22;51687;52.160;5.298;2023-05-07T10:08:53;19.70;70.60
43995;DHT22;51687;52.160;5.298;2023-05-07T10:11:22;19.70;70.30
43995;DHT22;51687;52.160;5.298;2023-05-07T10:13:50;19.70;69.90
43995;DHT22;51687;52.160;5.298;2023-05-07T10:16:19;19.70;69.50
43995;DHT22;51687;52.160;5.298;2023-05-07T10:18:46;19.70;69.40
43995;DHT22;51687;52.160;5.298;2023-05-07T10:21:20;19.80;69.90
43995;DHT22;51687;52.160;5.298;2023-05-07T10:24:12;19.80;70.30
43995;DHT22;51687;52.160;5.298;2023-05-07T10:26:48;19.80;70.40
43995;DHT22;51687;52.160;5.298;2023-05-07T10:32:45;19.80;68.50
43995;DHT22;51687;52.160;5.298;2023-05-07T10:35:25;19.80;68.60
43995;DHT22;51687;52.160;5.298;2023-05-07T10:48:10;19.90;68.80
43995;DHT22;51687;52.160;5.298;2023-05-07T10:51:18;20.00;67.40
43995;DHT22;51687;52.160;5.298;2023-05-07T10:53:45;20.00;66.90
43995;DHT22;51687;52.160;5.298;2023-05-07T10:58:45;20.00;66.50
43995;DHT22;51687;52.160;5.298;2023-05-07T11:01:12;20.00;67.30
43995;DHT22;51687;52.160;5.298;2023-05-07T11:04:12;20.00;66.80
43995;DHT22;51687;52.160;5.298;2023-05-07T12:49:48;21.20;66.20
43995;DHT22;51687;52.160;5.298;2023-05-07T12:52:15;21.20;65.50
43995;DHT22;51687;52.160;5.298;2023-05-07T12:54:42;21.20;64.80
43995;DHT22;51687;52.160;5.298;2023-05-07T12:57:10;21.20;64.40
43995;DHT22;51687;52.160;5.298;2023-05-07T12:59:41;21.30;64.40
43995;DHT22;51687;52.160;5.298;2023-05-07T13:02:08;21.30;64.50
43995;DHT22;51687;52.160;5.298;2023-05-07T13:04:36;21.30;64.10
43995;DHT22;51687;52.160;5.298;2023-05-07T13:07:03;21.40;63.90
43995;DHT22;51687;52.160;5.298;2023-05-07T13:09:30;21.40;63.70
43995;DHT22;51687;52.160;5.298;2023-05-07T13:12:01;21.40;62.40
43995;DHT22;51687;52.160;5.298;2023-05-07T13:14:28;21.40;63.40
43995;DHT22;51687;52.160;5.298;2023-05-07T13:16:55;21.40;62.90
43995;DHT22;51687;52.160;5.298;2023-05-07T13:19:21;21.50;62.80
43995;DHT22;51687;52.160;5.298;2023-05-07T13:21:48;21.50;63.60
43995;DHT22;51687;52.160;5.298;2023-05-07T13:24:16;21.50;64.50
43995;DHT22;51687;52.160;5.298;2023-05-07T13:26:43;21.50;63.60
43995;DHT22;51687;52.160;5.298;2023-05-07T13:29:11;21.50;62.60
43995;DHT22;51687;52.160;5.298;2023-05-07T13:31:38;21.50;62.50
43995;DHT22;51687;52.160;5.298;2023-05-07T13:34:09;21.50;62.40
43995;DHT22;51687;52.160;5.298;2023-05-07T13:36:36;21.50;62.60
43995;DHT22;51687;52.160;5.298;2023-05-07T13:39:06;21.60;62.70
43995;DHT22;51687;52.160;5.298;2023-05-07T13:41:33;21.60;61.60
43995;DHT22;51687;52.160;5.298;2023-05-07T13:44:00;21.60;61.90
43995;DHT22;51687;52.160;5.298;2023-05-07T13:46:26;21.60;61.90
43995;DHT22;51687;52.160;5.298;2023-05-07T13:48:53;21.60;61.60
43995;DHT22;51687;52.160;5.298;2023-05-07T13:51:20;21.60;61.70
43995;DHT22;51687;52.160;5.298;2023-05-07T13:53:48;21.60;62.50
43995;DHT22;51687;52.160;5.298;2023-05-07T13:56:15;21.70;64.70
43995;DHT22;51687;52.160;5.298;2023-05-07T13:58:41;21.70;65.40
43995;DHT22;51687;52.160;5.298;2023-05-07T14:01:25;21.70;66.90
43995;DHT22;51687;52.160;5.298;2023-05-07T14:03:53;21.70;67.30
43995;DHT22;51687;52.160;5.298;2023-05-07T14:06:21;21.70;67.10
43995;DHT22;51687;52.160;5.298;2023-05-07T14:08:48;21.70;68.50
43995;DHT22;51687;52.160;5.298;2023-05-07T14:11:15;21.70;68.60
43995;DHT22;51687;52.160;5.298;2023-05-07T14:13:41;21.80;67.10
43995;DHT22;51687;52.160;5.298;2023-05-07T14:16:08;21.80;66.10
43995;DHT22;51687;52.160;5.298;2023-05-07T14:18:35;21.80;67.50
43995;DHT22;51687;52.160;5.298;2023-05-07T14:21:05;21.80;67.60
43995;DHT22;51687;52.160;5.298;2023-05-07T14:23:36;21.80;68.00
43995;DHT22;51687;52.160;5.298;2023-05-07T14:26:03;21.80;67.50
43995;DHT22;51687;52.160;5.298;2023-05-07T14:28:29;21.80;67.20
43995;DHT22;51687;52.160;5.298;2023-05-07T14:30:56;21.80;66.60
43995;DHT22;51687;52.160;5.298;2023-05-07T15:20:12;21.80;68.20
43995;DHT22;51687;52.160;5.298;2023-05-07T15:22:39;21.60;67.70
43995;DHT22;51687;52.160;5.298;2023-05-07T15:25:06;21.50;67.70
43995;DHT22;51687;52.160;5.298;2023-05-07T15:27:32;21.50;66.90
43995;DHT22;51687;52.160;5.298;2023-05-07T15:29:59;21.50;66.70
43995;DHT22;51687;52.160;5.298;2023-05-07T15:32:26;21.50;66.80
43995;DHT22;51687;52.160;5.298;2023-05-07T15:34:53;21.40;66.80
43995;DHT22;51687;52.160;5.298;2023-05-07T15:37:20;21.40;67.10
43995;DHT22;51687;52.160;5.298;2023-05-07T15:39:46;21.40;66.90
43995;DHT22;51687;52.160;5.298;2023-05-07T15:42:13;21.40;66.80
43995;DHT22;51687;52.160;5.298;2023-05-07T15:44:40;21.30;66.80
43995;DHT22;51687;52.160;5.298;2023-05-07T15:47:07;21.30;67.10
43995;DHT22;51687;52.160;5.298;2023-05-07T15:49:34;21.40;66.90
43995;DHT22;51687;52.160;5.298;2023-05-07T15:52:01;21.30;67.20
43995;DHT22;51687;52.160;5.298;2023-05-07T15:54:28;21.30;67.00
43995;DHT22;51687;52.160;5.298;2023-05-07T15:56:54;21.30;66.60
43995;DHT22;51687;52.160;5.298;2023-05-07T15:59:21;21.30;66.90
43995;DHT22;51687;52.160;5.298;2023-05-07T16:01:48;21.30;66.30
43995;DHT22;51687;52.160;5.298;2023-05-07T16:04:15;21.30;66.00
43995;DHT22;51687;52.160;5.298;2023-05-07T16:06:42;21.30;66.60
43995;DHT22;51687;52.160;5.298;2023-05-07T16:09:13;21.30;66.70
43995;DHT22;51687;52.160;5.298;2023-05-07T16:11:40;21.30;66.80
43995;DHT22;51687;52.160;5.298;2023-05-07T16:14:06;21.30;66.20
43995;DHT22;51687;52.160;5.298;2023-05-07T16:16:34;21.30;66.70
43995;DHT22;51687;52.160;5.298;2023-05-07T16:19:01;21.30;66.30
43995;DHT22;51687;52.160;5.298;2023-05-07T16:21:28;21.20;66.60
43995;DHT22;51687;52.160;5.298;2023-05-07T16:23:56;21.20;66.60
43995;DHT22;51687;52.160;5.298;2023-05-07T16:26:23;21.20;66.40
43995;DHT22;51687;52.160;5.298;2023-05-07T16:28:49;21.20;66.60
43995;DHT22;51687;52.160;5.298;2023-05-07T16:31:17;21.20;66.00
43995;DHT22;51687;52.160;5.298;2023-05-07T16:33:45;21.20;66.30
43995;DHT22;51687;52.160;5.298;2023-05-07T16:36:11;21.20;65.70
43995;DHT22;51687;52.160;5.298;2023-05-07T16:38:38;21.20;65.60
43995;DHT22;51687;52.160;5.298;2023-05-07T16:41:05;21.10;65.90
43995;DHT22;51687;52.160;5.298;2023-05-07T16:43:32;21.10;66.70
43995;DHT22;51687;52.160;5.298;2023-05-07T16:45:58;21.10;66.70
43995;DHT22;51687;52.160;5.298;2023-05-07T16:48:25;21.10;66.50
43995;DHT22;51687;52.160;5.298;2023-05-07T16:50:52;21.10;66.80
43995;DHT22;51687;52.160;5.298;2023-05-07T16:53:18;21.10;67.20
43995;DHT22;51687;52.160;5.298;2023-05-07T16:55:46;21.10;67.40
43995;DHT22;51687;52.160;5.298;2023-05-07T16:58:12;21.10;67.00
43995;DHT22;51687;52.160;5.298;2023-05-07T17:00:40;21.00;66.60
43995;DHT22;51687;52.160;5.298;2023-05-07T17:03:17;21.00;67.10
43995;DHT22;51687;52.160;5.298;2023-05-07T17:05:44;21.00;66.80
43995;DHT22;51687;52.160;5.298;2023-05-07T17:08:11;21.00;66.80
43995;DHT22;51687;52.160;5.298;2023-05-07T17:10:40;21.00;66.90
43995;DHT22;51687;52.160;5.298;2023-05-07T17:13:07;21.00;66.20
43995;DHT22;51687;52.160;5.298;2023-05-07T17:15:33;21.00;66.50
43995;DHT22;51687;52.160;5.298;2023-05-07T17:18:00;20.90;66.60
43995;DHT22;51687;52.160;5.298;2023-05-07T17:20:27;20.90;67.10
43995;DHT22;51687;52.160;5.298;2023-05-07T17:22:54;20.90;67.30
43995;DHT22;51687;52.160;5.298;2023-05-07T17:25:22;20.90;67.40
43995;DHT22;51687;52.160;5.298;2023-05-07T17:27:49;20.90;67.60
43995;DHT22;51687;52.160;5.298;2023-05-07T17:30:16;20.90;67.60
43995;DHT22;51687;52.160;5.298;2023-05-07T17:32:43;20.90;67.90
43995;DHT22;51687;52.160;5.298;2023-05-07T17:35:10;20.80;67.70
43995;DHT22;51687;52.160;5.298;2023-05-07T17:37:38;20.90;68.00
43995;DHT22;51687;52.160;5.298;2023-05-07T17:40:07;20.90;67.80
43995;DHT22;51687;52.160;5.298;2023-05-07T17:42:33;20.90;67.70
43995;DHT22;51687;52.160;5.298;2023-05-07T17:45:00;20.90;67.80
43995;DHT22;51687;52.160;5.298;2023-05-07T17:47:27;20.80;67.70
43995;DHT22;51687;52.160;5.298;2023-05-07T17:49:54;20.90;67.80
43995;DHT22;51687;52.160;5.298;2023-05-07T17:52:21;20.90;68.30
43995;DHT22;51687;52.160;5.298;2023-05-07T17:54:48;20.90;68.50
43995;DHT22;51687;52.160;5.298;2023-05-07T17:57:17;20.90;68.10
43995;DHT22;51687;52.160;5.298;2023-05-07T17:59:44;20.90;68.00
43995;DHT22;51687;52.160;5.298;2023-05-07T18:02:12;20.80;68.10
43995;DHT22;51687;52.160;5.298;2023-05-07T18:04:39;20.80;67.50
43995;DHT22;51687;52.160;5.298;2023-05-07T18:07:06;20.80;67.50
43995;DHT22;51687;52.160;5.298;2023-05-07T18:09:33;20.80;67.10
43995;DHT22;51687;52.160;5.298;2023-05-07T18:11:59;20.80;67.70
43995;DHT22;51687;52.160;5.298;2023-05-07T18:14:26;20.80;67.50
43995;DHT22;51687;52.160;5.298;2023-05-07T18:16:53;20.80;67.70
43995;DHT22;51687;52.160;5.298;2023-05-07T18:19:20;20.80;68.00
43995;DHT22;51687;52.160;5.298;2023-05-07T18:21:47;20.80;68.30
43995;DHT22;51687;52.160;5.298;2023-05-07T18:24:14;20.80;68.30
43995;DHT22;51687;52.160;5.298;2023-05-07T18:26:41;20.80;68.40
43995;DHT22;51687;52.160;5.298;2023-05-07T18:29:08;20.80;68.70
43995;DHT22;51687;52.160;5.298;2023-05-07T18:31:35;20.80;68.90
43995;DHT22;51687;52.160;5.298;2023-05-07T18:34:03;20.80;68.90
43995;DHT22;51687;52.160;5.298;2023-05-07T18:36:31;20.80;68.90
43995;DHT22;51687;52.160;5.298;2023-05-07T18:38:58;20.80;69.20
43995;DHT22;51687;52.160;5.298;2023-05-07T18:41:25;20.70;69.00
43995;DHT22;51687;52.160;5.298;2023-05-07T18:43:52;20.70;69.10
43995;DHT22;51687;52.160;5.298;2023-05-07T18:46:19;20.70;69.40
43995;DHT22;51687;52.160;5.298;2023-05-07T18:48:46;20.70;69.60
43995;DHT22;51687;52.160;5.298;2023-05-07T18:51:13;20.70;69.60
43995;DHT22;51687;52.160;5.298;2023-05-07T18:53:40;20.70;69.60
43995;DHT22;51687;52.160;5.298;2023-05-07T18:56:07;20.70;69.80
43995;DHT22;51687;52.160;5.298;2023-05-07T18:58:34;20.70;69.90
43995;DHT22;51687;52.160;5.298;2023-05-07T19:01:01;20.70;69.80
43995;DHT22;51687;52.160;5.298;2023-05-07T19:03:34;20.60;69.90
43995;DHT22;51687;52.160;5.298;2023-05-07T19:06:01;20.60;70.00
43995;DHT22;51687;52.160;5.298;2023-05-07T19:08:28;20.70;70.10
43995;DHT22;51687;52.160;5.298;2023-05-07T19:10:55;20.60;70.10